Time;durP1;ratioP1;P1;durP2;ratioP2;P2;SDS_P1;SDS_P2;PMS_P1;PMS_P2;Temp;Humidity;BMP_temperature;BMP_pressure;BME280_temperature;BME280_humidity;BME280_pressure;Samples;Min_cycle;Max_cycle;Signal;HPM_P1;HPM_P2
2022/07/26 00:01:19;;;;;;;7.88;0.93;;;19.10;99.90;;;;;;5096978;28;20035;-75
2022/07/26 00:03:46;;;;;;;8.65;0.38;;;19.20;99.90;;;;;;5097098;28;20024;-76
2022/07/26 00:06:12;;;;;;;11.25;0.63;;;18.90;99.90;;;;;;5096927;28;20071;-76
2022/07/26 00:08:37;;;;;;;10.25;0.63;;;19.00;99.90;;;;;;5096825;28;20025;-76
2022/07/26 00:11:03;;;;;;;9.57;1.45;;;18.90;99.90;;;;;;5097662;28;20028;-76
2022/07/26 00:13:29;;;;;;;15.02;1.23;;;18.90;99.90;;;;;;5097310;28;20047;-75
2022/07/26 00:15:54;;;;;;;14.63;0.85;;;19.00;99.90;;;;;;5097007;28;20028;-76
2022/07/26 00:18:20;;;;;;;11.10;0.75;;;18.90;99.90;;;;;;5096829;28;20114;-76
2022/07/26 00:20:47;;;;;;;4.00;0.20;;;19.00;99.90;;;;;;5095402;28;20024;-75
2022/07/26 00:23:13;;;;;;;10.65;1.35;;;19.10;99.90;;;;;;5096938;28;20069;-75
2022/07/26 00:25:39;;;;;;;11.48;0.95;;;19.00;99.90;;;;;;5096811;28;20477;-75
2022/07/26 00:28:05;;;;;;;8.23;0.57;;;19.00;99.90;;;;;;5096602;28;20095;-76
2022/07/26 00:30:31;;;;;;;12.50;0.32;;;19.10;99.90;;;;;;5096740;28;20093;-76
2022/07/26 00:32:56;;;;;;;10.75;1.02;;;19.10;99.90;;;;;;5096551;28;20052;-75
2022/07/26 00:35:22;;;;;;;8.90;0.80;;;19.10;99.90;;;;;;5096958;28;20024;-76
2022/07/26 00:37:48;;;;;;;9.27;1.00;;;19.30;99.90;;;;;;5095253;28;20534;-75
2022/07/26 00:40:15;;;;;;;9.90;0.98;;;19.10;99.90;;;;;;5096364;28;20028;-76
2022/07/26 00:42:41;;;;;;;10.02;0.60;;;19.10;99.90;;;;;;5096346;28;20031;-76
2022/07/26 00:45:09;;;;;;;8.60;0.90;;;19.10;99.90;;;;;;5096755;28;20403;-76
2022/07/26 00:47:35;;;;;;;6.75;0.45;;;19.20;99.90;;;;;;5095160;28;20059;-76
2022/07/26 00:50:03;;;;;;;8.05;0.88;;;19.20;99.90;;;;;;5096428;28;20516;-76
2022/07/26 00:52:28;;;;;;;9.13;0.52;;;19.20;99.90;;;;;;5096613;28;20483;-76
2022/07/26 00:54:55;;;;;;;8.52;0.63;;;19.10;99.90;;;;;;5096173;28;20020;-75
2022/07/26 00:57:23;;;;;;;12.50;0.80;;;19.00;99.90;;;;;;5096025;28;20052;-76
2022/07/26 00:59:49;;;;;;;;;;;19.00;99.90;;;;;;5096232;28;20107;-76
2022/07/26 01:02:16;;;;;;;6.68;0.60;;;19.00;99.90;;;;;;5096182;28;19998;-75
2022/07/26 01:04:43;;;;;;;6.45;0.57;;;18.90;99.90;;;;;;5095743;28;20027;-75
2022/07/26 01:07:09;;;;;;;6.30;0.75;;;19.00;99.90;;;;;;5095816;28;20105;-76
2022/07/26 01:09:36;;;;;;;7.05;0.73;;;18.90;99.90;;;;;;5094548;28;20017;-75
2022/07/26 01:12:02;;;;;;;2.50;0.30;;;18.80;99.90;;;;;;5095708;28;20028;-76
2022/07/26 01:14:28;;;;;;;9.30;0.40;;;18.80;99.90;;;;;;5094457;28;20062;-76
2022/07/26 01:16:53;;;;;;;5.45;0.50;;;18.70;99.90;;;;;;5094435;28;20016;-75
2022/07/26 01:19:19;;;;;;;5.43;0.10;;;18.70;99.90;;;;;;5095849;28;20104;-77
2022/07/26 01:21:45;;;;;;;2.40;0.20;;;18.60;99.90;;;;;;5095606;28;20051;-77
2022/07/26 01:24:11;;;;;;;2.50;0.38;;;18.60;99.90;;;;;;5095573;28;20054;-77
2022/07/26 01:26:37;;;;;;;2.85;0.30;;;18.50;99.90;;;;;;5094211;28;20534;-77
2022/07/26 01:29:03;;;;;;;2.97;0.40;;;18.50;99.90;;;;;;5095530;28;20024;-77
2022/07/26 01:31:29;;;;;;;2.20;0.00;;;18.50;99.90;;;;;;5095207;28;20025;-77
2022/07/26 01:33:55;;;;;;;4.45;0.10;;;18.50;99.90;;;;;;5095334;28;20027;-77
2022/07/26 01:36:20;;;;;;;2.70;0.30;;;18.40;99.90;;;;;;5095530;28;20032;-77
2022/07/26 01:38:46;;;;;;;2.75;0.15;;;18.30;99.90;;;;;;5094041;28;20541;-77
2022/07/26 01:41:12;;;;;;;1.42;0.10;;;18.40;99.90;;;;;;5095789;28;20028;-77
2022/07/26 01:43:37;;;;;;;4.25;0.28;;;18.40;99.90;;;;;;5095229;28;20099;-77
2022/07/26 01:46:05;;;;;;;4.03;0.60;;;18.40;99.90;;;;;;5095035;28;20537;-77
2022/07/26 01:48:30;;;;;;;2.15;0.45;;;18.40;99.90;;;;;;5095093;28;20049;-77
2022/07/26 01:50:56;;;;;;;1.60;0.15;;;18.40;99.90;;;;;;5095209;28;20016;-77
2022/07/26 01:53:21;;;;;;;2.08;0.00;;;18.40;99.90;;;;;;5095218;28;20030;-78
2022/07/26 01:55:47;;;;;;;1.17;0.10;;;18.40;99.90;;;;;;5094937;28;20427;-77
2022/07/26 01:58:13;;;;;;;9.43;0.10;;;18.40;99.90;;;;;;5095251;28;20110;-77
2022/07/26 02:00:39;;;;;;;1.98;0.38;;;18.40;99.90;;;;;;5095059;28;20055;-77
2022/07/26 02:03:04;;;;;;;2.35;0.43;;;18.40;99.90;;;;;;5094782;28;20392;-78
2022/07/26 02:05:30;;;;;;;1.65;0.03;;;18.40;99.90;;;;;;5094672;28;20020;-77
2022/07/26 02:07:56;;;;;;;1.77;0.10;;;18.30;99.90;;;;;;5093230;28;20028;-77
2022/07/26 02:10:22;;;;;;;1.20;0.00;;;18.30;99.90;;;;;;5093252;28;20028;-77
2022/07/26 02:12:48;;;;;;;1.50;0.30;;;18.30;99.90;;;;;;5094924;28;20020;-77
2022/07/26 02:15:14;;;;;;;2.22;0.30;;;18.30;99.90;;;;;;5093366;28;20020;-77
2022/07/26 02:17:40;;;;;;;0.47;0.00;;;18.20;99.90;;;;;;5094873;28;20031;-77
2022/07/26 02:20:07;;;;;;;3.65;0.10;;;18.20;99.90;;;;;;5094341;28;20032;-77
2022/07/26 02:22:32;;;;;;;1.67;0.20;;;18.10;99.90;;;;;;5094301;28;20025;-77
2022/07/26 02:24:58;;;;;;;1.77;0.00;;;18.10;99.90;;;;;;5094283;28;20039;-77
2022/07/26 02:27:23;;;;;;;2.42;0.20;;;18.10;99.90;;;;;;5094633;28;20457;-77
2022/07/26 02:29:52;;;;;;;1.67;0.00;;;18.00;99.90;;;;;;5094489;28;20016;-77
2022/07/26 02:32:17;;;;;;;2.47;0.00;;;18.00;99.90;;;;;;5093025;28;20389;-77
2022/07/26 02:34:43;;;;;;;0.80;0.00;;;17.90;99.90;;;;;;5094228;28;20024;-77
2022/07/26 02:37:09;;;;;;;3.45;0.13;;;17.90;99.90;;;;;;5094436;28;20021;-77
2022/07/26 02:39:34;;;;;;;0.80;0.00;;;17.90;99.90;;;;;;5094410;28;20047;-77
2022/07/26 02:42:02;;;;;;;3.83;0.00;;;17.90;99.90;;;;;;5094245;28;20077;-77
2022/07/26 02:44:28;;;;;;;2.17;0.10;;;17.80;99.90;;;;;;5092731;28;20024;-77
2022/07/26 02:46:54;;;;;;;2.25;0.47;;;17.80;99.90;;;;;;5093870;28;20099;-77
2022/07/26 02:49:20;;;;;;;2.30;0.13;;;17.80;99.90;;;;;;5093904;28;20452;-77
2022/07/26 02:51:46;;;;;;;0.40;0.00;;;17.80;99.90;;;;;;5093803;28;20056;-77
2022/07/26 02:54:12;;;;;;;2.15;0.00;;;17.80;99.90;;;;;;5092579;28;20031;-78
2022/07/26 02:56:38;;;;;;;6.93;0.30;;;17.70;99.90;;;;;;5093905;28;20035;-77
2022/07/26 02:59:04;;;;;;;1.27;0.20;;;17.70;99.90;;;;;;5092432;28;20388;-77
2022/07/26 03:01:30;;;;;;;1.85;0.03;;;17.60;99.90;;;;;;5093762;28;20028;-77
2022/07/26 03:03:55;;;;;;;3.25;0.00;;;17.80;99.90;;;;;;5093687;28;20511;-77
2022/07/26 03:06:21;;;;;;;3.60;0.50;;;17.50;99.90;;;;;;5093566;28;20465;-77
2022/07/26 03:08:47;;;;;;;2.90;0.00;;;17.40;99.90;;;;;;5094422;28;20036;-77
2022/07/26 03:11:13;;;;;;;3.55;0.13;;;17.30;99.90;;;;;;5093004;28;20522;-77
2022/07/26 03:13:39;;;;;;;1.83;0.00;;;17.30;99.90;;;;;;5093825;28;20052;-78
2022/07/26 03:16:06;;;;;;;0.30;0.00;;;17.50;99.90;;;;;;5093617;28;20389;-77
2022/07/26 03:18:32;;;;;;;3.63;0.17;;;17.20;99.90;;;;;;5093754;28;20027;-77
2022/07/26 03:20:57;;;;;;;4.78;0.13;;;17.50;99.90;;;;;;5092213;28;20024;-77
2022/07/26 03:23:23;;;;;;;2.58;0.45;;;17.20;99.90;;;;;;5093499;28;20090;-77
2022/07/26 03:25:52;;;;;;;1.63;0.00;;;17.30;99.90;;;;;;5093322;28;20031;-77
2022/07/26 03:28:18;;;;;;;1.13;0.00;;;17.30;99.90;;;;;;5093435;28;20020;-77
2022/07/26 03:30:43;;;;;;;4.88;0.20;;;17.30;99.90;;;;;;5093920;28;20024;-77
2022/07/26 03:33:09;;;;;;;2.90;0.47;;;17.20;99.90;;;;;;5093695;28;20031;-77
2022/07/26 03:35:34;;;;;;;2.33;0.00;;;17.20;99.90;;;;;;5093494;28;20028;-77
2022/07/26 03:38:00;;;;;;;3.83;0.20;;;17.10;99.90;;;;;;5092092;28;20031;-77
2022/07/26 03:40:25;;;;;;;1.67;0.00;;;17.10;99.90;;;;;;5093256;28;20114;-77
2022/07/26 03:42:51;;;;;;;2.47;0.00;;;17.00;99.90;;;;;;5093301;28;20095;-77
2022/07/26 03:45:17;;;;;;;0.43;0.00;;;16.90;99.90;;;;;;5091903;28;20078;-77
2022/07/26 03:47:43;;;;;;;2.47;0.22;;;16.90;99.90;;;;;;5093574;28;20024;-77
2022/07/26 03:50:09;;;;;;;3.58;0.22;;;16.90;99.90;;;;;;5091889;28;20008;-77
2022/07/26 03:52:35;;;;;;;1.38;0.30;;;16.80;99.90;;;;;;5093686;28;20031;-77
2022/07/26 03:56:27;;;;;;;1.45;0.08;;;16.80;99.90;;;;;;5093185;28;20028;-77
2022/07/26 03:57:47;;;;;;;3.22;0.20;;;16.80;99.90;;;;;;5093045;28;20025;-77
2022/07/26 04:00:13;;;;;;;1.98;0.10;;;16.70;99.90;;;;;;5091829;28;20381;-77
2022/07/26 04:02:39;;;;;;;2.40;0.00;;;16.70;99.90;;;;;;5093327;28;20028;-77
2022/07/26 04:05:05;;;;;;;3.17;0.00;;;16.70;99.90;;;;;;5091790;28;20069;-77
2022/07/26 04:07:30;;;;;;;5.43;0.40;;;16.70;99.90;;;;;;5093183;28;20060;-77
2022/07/26 04:09:56;;;;;;;5.30;0.22;;;16.70;99.90;;;;;;5091763;28;20070;-77
2022/07/26 04:12:21;;;;;;;0.75;0.00;;;16.70;99.90;;;;;;5093182;28;20061;-77
2022/07/26 04:14:47;;;;;;;1.20;0.30;;;16.80;99.90;;;;;;5093086;28;20027;-77
2022/07/26 04:17:12;;;;;;;0.47;0.00;;;16.70;99.90;;;;;;5091765;28;20032;-77
2022/07/26 04:19:39;;;;;;;6.55;0.00;;;17.30;99.90;;;;;;5092878;28;20028;-77
2022/07/26 04:22:04;;;;;;;7.53;0.57;;;16.80;99.90;;;;;;5093186;28;20020;-77
2022/07/26 04:24:30;;;;;;;1.48;0.10;;;16.80;99.90;;;;;;5096809;28;20389;-77
2022/07/26 04:26:55;;;;;;;1.60;0.20;;;16.90;99.90;;;;;;5097132;28;20467;-77
2022/07/26 04:29:21;;;;;;;1.55;0.10;;;16.90;99.90;;;;;;5096957;28;20016;-77
2022/07/26 04:31:46;;;;;;;2.83;0.20;;;17.20;99.90;;;;;;5096581;28;20059;-77
2022/07/26 04:34:12;;;;;;;3.08;0.20;;;17.00;99.90;;;;;;5097093;28;20039;-77
2022/07/26 04:36:37;;;;;;;3.42;0.00;;;17.10;99.90;;;;;;5096476;28;20113;-77
2022/07/26 04:39:03;;;;;;;2.72;0.10;;;17.20;99.90;;;;;;5095118;28;20036;-77
2022/07/26 04:41:29;;;;;;;7.15;0.25;;;17.30;99.90;;;;;;5095064;28;20024;-77
2022/07/26 04:43:55;;;;;;;3.58;0.10;;;17.40;99.90;;;;;;5096229;28;20112;-77
2022/07/26 04:46:20;;;;;;;4.93;0.30;;;17.40;99.90;;;;;;5096896;28;20111;-77
2022/07/26 04:48:46;;;;;;;0.57;0.10;;;17.40;99.90;;;;;;5094956;28;20452;-77
2022/07/26 04:51:11;;;;;;;0.63;0.00;;;17.50;99.90;;;;;;5096138;28;20031;-77
2022/07/26 04:53:37;;;;;;;1.45;0.22;;;17.60;99.90;;;;;;5096190;28;20024;-77
2022/07/26 04:56:03;;;;;;;0.70;0.00;;;17.60;99.90;;;;;;5096072;28;20028;-77
2022/07/26 04:58:28;;;;;;;4.07;0.20;;;17.70;99.90;;;;;;5096075;28;20024;-77
2022/07/26 05:00:54;;;;;;;0.75;0.00;;;17.80;99.90;;;;;;5095871;28;20409;-78
2022/07/26 05:03:20;;;;;;;3.30;0.00;;;17.80;99.90;;;;;;5095927;28;20473;-77
2022/07/26 05:05:46;;;;;;;4.07;0.40;;;17.80;99.90;;;;;;5096152;28;20020;-77
2022/07/26 05:08:15;;;;;;;3.10;0.43;;;17.90;99.90;;;;;;5095742;28;20053;-77
2022/07/26 05:10:40;;;;;;;1.98;0.00;;;17.90;99.90;;;;;;5095876;28;20419;-77
2022/07/26 05:13:06;;;;;;;3.20;0.32;;;18.00;99.90;;;;;;5094667;28;20016;-77
2022/07/26 05:15:34;;;;;;;0.90;0.10;;;18.00;99.90;;;;;;5095794;28;20031;-77
2022/07/26 05:18:04;;;;;;;2.28;0.00;;;18.00;99.90;;;;;;5096207;28;20017;-77
2022/07/26 05:20:30;;;;;;;3.22;0.30;;;18.00;99.90;;;;;;5094269;28;20548;-77
2022/07/26 05:22:57;;;;;;;5.07;0.10;;;18.00;99.90;;;;;;5094345;28;20059;-77
2022/07/26 05:25:23;;;;;;;3.30;0.40;;;18.10;99.90;;;;;;5095415;28;20024;-77
2022/07/26 05:27:48;;;;;;;6.07;0.80;;;18.00;99.90;;;;;;5095530;28;20016;-77
2022/07/26 05:30:14;;;;;;;6.55;0.40;;;17.90;99.90;;;;;;5095326;28;20062;-77
2022/07/26 05:32:40;;;;;;;0.20;0.10;;;17.90;99.90;;;;;;5094188;28;20027;-78
2022/07/26 05:35:07;;;;;;;2.67;0.30;;;17.80;99.90;;;;;;5094897;28;20073;-77
2022/07/26 05:37:33;;;;;;;2.05;0.32;;;17.80;99.90;;;;;;5095896;28;20020;-77
2022/07/26 05:39:58;;;;;;;0.73;0.08;;;17.70;99.90;;;;;;5095466;28;20027;-76
2022/07/26 05:42:24;;;;;;;2.55;0.03;;;17.70;99.90;;;;;;5093981;28;20023;-76
2022/07/26 05:44:50;;;;;;;3.15;0.15;;;17.60;99.90;;;;;;5095113;28;20028;-76
2022/07/26 05:47:16;;;;;;;1.48;0.00;;;17.50;99.90;;;;;;5093860;28;20016;-76
2022/07/26 05:49:41;;;;;;;1.10;0.00;;;17.50;99.90;;;;;;5093772;28;20469;-76
2022/07/26 05:52:07;;;;;;;1.63;0.10;;;17.40;99.90;;;;;;5095012;28;20054;-76
2022/07/26 05:54:34;;;;;;;0.50;0.00;;;17.40;99.90;;;;;;5095214;28;20016;-76
2022/07/26 05:56:59;;;;;;;2.15;0.30;;;17.40;99.90;;;;;;5094853;28;20021;-76
2022/07/26 05:59:25;;;;;;;3.47;0.00;;;17.50;99.90;;;;;;5094769;28;20078;-75
2022/07/26 06:01:50;;;;;;;1.35;0.00;;;17.50;99.90;;;;;;5094897;28;20054;-75
2022/07/26 06:04:16;;;;;;;0.70;0.00;;;17.50;99.90;;;;;;5094787;28;20508;-75
2022/07/26 06:06:41;;;;;;;1.58;0.10;;;17.50;99.90;;;;;;5093387;28;20032;-75
2022/07/26 06:09:07;;;;;;;0.45;0.00;;;17.60;99.90;;;;;;5094754;28;20032;-75
2022/07/26 06:11:33;;;;;;;3.53;0.45;;;17.50;99.90;;;;;;5093303;28;20020;-74
2022/07/26 06:13:58;;;;;;;2.80;0.22;;;17.50;99.90;;;;;;5094699;28;20029;-74
2022/07/26 06:16:39;;;;;;;3.95;0.00;;;17.60;99.90;;;;;;5061180;28;20455;-75
2022/07/26 06:19:04;;;;;;;3.30;0.10;;;17.70;99.90;;;;;;5094533;28;20021;-75
2022/07/26 06:21:30;;;;;;;2.40;0.00;;;17.70;99.90;;;;;;5094488;28;20106;-75
2022/07/26 06:23:55;;;;;;;5.15;0.00;;;17.70;99.90;;;;;;5093335;28;20115;-75
2022/07/26 06:26:22;;;;;;;1.27;0.00;;;17.80;99.90;;;;;;5094314;28;20020;-75
2022/07/26 06:28:50;;;;;;;0.35;0.00;;;17.80;99.90;;;;;;5093154;28;20020;-75
2022/07/26 06:31:17;;;;;;;4.35;0.45;;;17.80;99.90;;;;;;5093378;28;20031;-75
2022/07/26 06:33:42;;;;;;;2.65;0.20;;;17.90;99.90;;;;;;5094307;28;20031;-75
2022/07/26 06:36:08;;;;;;;2.70;0.35;;;17.90;99.90;;;;;;5094209;28;20412;-75
2022/07/26 06:38:33;;;;;;;5.13;0.38;;;17.90;99.90;;;;;;5094304;28;20020;-75
2022/07/26 06:40:59;;;;;;;7.43;0.15;;;18.00;99.90;;;;;;5094102;28;20024;-75
2022/07/26 06:43:25;;;;;;;3.20;0.05;;;17.90;99.90;;;;;;5094315;28;20035;-75
2022/07/26 06:45:50;;;;;;;5.28;0.15;;;17.90;99.90;;;;;;5093211;28;20016;-75
2022/07/26 06:48:16;;;;;;;4.10;0.70;;;18.00;99.90;;;;;;5094567;28;20024;-75
2022/07/26 06:50:41;;;;;;;1.40;0.22;;;17.90;99.90;;;;;;5093745;28;20091;-75
2022/07/26 06:53:07;;;;;;;2.55;0.00;;;18.00;99.90;;;;;;5094137;28;20020;-75
2022/07/26 06:55:32;;;;;;;10.43;0.52;;;18.00;99.90;;;;;;5094134;28;20125;-75
2022/07/26 06:57:58;;;;;;;4.97;0.63;;;18.10;99.90;;;;;;5094162;28;20051;-74
2022/07/26 07:00:23;;;;;;;0.77;0.10;;;18.10;99.90;;;;;;5094057;28;20028;-75
2022/07/26 07:02:49;;;;;;;16.33;0.35;;;17.90;99.90;;;;;;5092563;28;20024;-75
2022/07/26 07:05:15;;;;;;;3.30;0.70;;;17.90;99.90;;;;;;5093681;28;20129;-75
2022/07/26 07:07:40;;;;;;;1.27;0.00;;;17.90;99.90;;;;;;5106950;22;20097;-75
2022/07/26 07:10:06;;;;;;;0.57;0.00;;;17.80;99.90;;;;;;5112707;28;20108;-75
2022/07/26 07:12:32;;;;;;;1.95;0.00;;;17.90;99.90;;;;;;5114054;28;20023;-75
2022/07/26 07:14:57;;;;;;;3.45;0.00;;;18.10;99.90;;;;;;5114575;28;20028;-76
2022/07/26 07:17:23;;;;;;;0.85;0.00;;;17.80;99.90;;;;;;5113927;28;20031;-76
2022/07/26 07:19:48;;;;;;;1.60;0.20;;;17.80;99.90;;;;;;5113935;28;20024;-76
2022/07/26 07:22:14;;;;;;;0.75;0.10;;;17.70;99.90;;;;;;5112693;28;20035;-76
2022/07/26 07:24:41;;;;;;;1.35;0.00;;;17.80;99.90;;;;;;5112645;28;20023;-75
2022/07/26 07:27:07;;;;;;;1.00;0.00;;;18.00;99.90;;;;;;5114223;28;20093;-76
2022/07/26 07:29:32;;;;;;;2.05;0.00;;;17.70;99.90;;;;;;5113797;28;20020;-76
2022/07/26 07:31:58;;;;;;;0.17;0.00;;;17.80;99.90;;;;;;5113772;28;20024;-76
2022/07/26 07:34:24;;;;;;;2.58;0.00;;;17.80;99.90;;;;;;5114210;28;20127;-76
2022/07/26 07:36:50;;;;;;;2.30;0.00;;;17.90;99.90;;;;;;5113845;28;20099;-75
2022/07/26 07:39:17;;;;;;;0.80;0.00;;;18.00;99.90;;;;;;5113952;28;20153;-75
2022/07/26 07:41:47;;;;;;;2.58;0.00;;;18.10;99.90;;;;;;5113680;28;20472;-75
2022/07/26 07:44:12;;;;;;;2.70;0.08;;;18.20;99.90;;;;;;5113577;28;20039;-75
2022/07/26 07:46:38;;;;;;;3.55;0.45;;;18.30;99.90;;;;;;5113959;28;20032;-75
2022/07/26 07:49:04;;;;;;;2.53;0.00;;;18.40;99.90;;;;;;5112575;28;20476;-75
2022/07/26 07:51:29;;;;;;;3.28;0.30;;;18.50;99.90;;;;;;5113882;28;20016;-75
2022/07/26 07:53:55;;;;;;;1.17;0.00;;;18.60;99.90;;;;;;5113593;28;20065;-75
2022/07/26 07:56:21;;;;;;;1.65;0.00;;;18.70;99.90;;;;;;5114582;28;20034;-75
2022/07/26 07:58:46;;;;;;;1.38;0.00;;;18.90;99.90;;;;;;5117941;28;20024;-75
2022/07/26 08:01:12;;;;;;;1.80;0.00;;;19.00;99.90;;;;;;5117500;28;20361;-75
2022/07/26 08:03:38;;;;;;;2.78;0.00;;;19.20;99.90;;;;;;5117696;28;20470;-75
2022/07/26 08:06:05;;;;;;;2.10;0.00;;;19.20;99.90;;;;;;5117381;28;20015;-75
2022/07/26 08:08:31;;;;;;;1.20;0.00;;;19.30;99.90;;;;;;5117556;28;20031;-75
2022/07/26 08:10:57;;;;;;;0.17;0.00;;;19.40;99.90;;;;;;5117353;27;20495;-76
2022/07/26 08:13:23;;;;;;;0.80;0.20;;;19.60;99.90;;;;;;5117895;28;20024;-76
2022/07/26 08:15:53;;;;;;;0.57;0.00;;;19.90;99.90;;;;;;5116145;28;20019;-76
2022/07/26 08:18:20;;;;;;;2.58;0.00;;;20.10;99.90;;;;;;5117870;28;20110;-76
2022/07/26 08:20:46;;;;;;;0.80;0.00;;;20.30;99.90;;;;;;5117235;28;20038;-76
2022/07/26 08:23:12;;;;;;;1.67;0.00;;;20.30;99.90;;;;;;5117327;27;20012;-76
2022/07/26 08:25:37;;;;;;;1.08;0.00;;;20.40;99.90;;;;;;5117385;28;20354;-76
2022/07/26 08:28:03;;;;;;;2.00;0.30;;;20.60;99.90;;;;;;5117262;28;20016;-76
2022/07/26 08:30:29;;;;;;;0.90;0.00;;;20.50;99.90;;;;;;5115736;28;20111;-76
2022/07/26 08:32:54;;;;;;;1.73;0.68;;;20.40;99.90;;;;;;5117627;28;20023;-76
2022/07/26 08:35:20;;;;;;;1.38;0.00;;;20.40;99.90;;;;;;5115810;28;20488;-76
2022/07/26 08:37:46;;;;;;;0.75;0.00;;;20.30;99.90;;;;;;5117023;28;20388;-76
2022/07/26 08:40:12;;;;;;;2.33;0.00;;;20.10;99.90;;;;;;5115676;28;20012;-76
2022/07/26 08:42:38;;;;;;;2.08;0.30;;;19.90;99.90;;;;;;5117083;28;20075;-76
2022/07/26 08:45:04;;;;;;;1.02;0.00;;;19.90;99.90;;;;;;5117080;28;20116;-76
2022/07/26 08:47:30;;;;;;;1.65;0.00;;;20.00;99.90;;;;;;5116834;28;20132;-76
2022/07/26 08:49:56;;;;;;;1.83;0.00;;;20.10;99.90;;;;;;5116651;28;20194;-76
2022/07/26 08:52:21;;;;;;;0.25;0.00;;;20.60;99.90;;;;;;5116597;28;20016;-76
2022/07/26 08:54:49;;;;;;;1.83;0.00;;;20.40;99.90;;;;;;5116733;28;20030;-76
2022/07/26 08:57:15;;;;;;;2.00;0.00;;;20.60;99.90;;;;;;5116660;28;20020;-76
2022/07/26 08:59:41;;;;;;;1.20;0.00;;;20.80;99.90;;;;;;5115200;28;20030;-76
2022/07/26 09:02:12;;;;;;;3.58;0.47;;;20.80;99.90;;;;;;5115355;28;20098;-76
2022/07/26 09:04:43;;;;;;;2.20;0.13;;;20.90;99.90;;;;;;5116473;28;20547;-76
2022/07/26 09:07:14;;;;;;;0.30;0.00;;;21.00;99.90;;;;;;5116330;28;20487;-76
2022/07/26 09:09:57;;;;;;;4.30;0.15;;;21.00;99.90;;;;;;5115468;28;20028;-76
2022/07/26 09:12:24;;;;;;;1.38;0.00;;;21.00;99.90;;;;;;5116503;28;20024;-76
2022/07/26 09:14:50;;;;;;;4.88;0.10;;;20.90;99.90;;;;;;5116138;28;20024;-76
2022/07/26 09:17:19;;;;;;;6.15;0.00;;;20.90;99.90;;;;;;5116160;28;20444;-76
2022/07/26 09:19:45;;;;;;;0.88;0.15;;;21.10;99.90;;;;;;5116347;28;20094;-76
2022/07/26 09:22:13;;;;;;;1.08;0.10;;;21.60;99.90;;;;;;5116145;28;20022;-76
2022/07/26 09:24:44;;;;;;;2.10;0.00;;;21.90;99.90;;;;;;5116302;28;20028;-76
2022/07/26 09:27:14;;;;;;;2.45;0.00;;;22.00;99.90;;;;;;5116023;28;20019;-76
2022/07/26 09:29:51;;;;;;;4.38;0.10;;;21.90;99.90;;;;;;5116266;28;20024;-76
2022/07/26 09:32:22;;;;;;;4.13;0.17;;;21.80;99.90;;;;;;5114730;28;20016;-76
2022/07/26 09:35:07;;;;;;;3.17;0.22;;;21.70;99.90;;;;;;5114660;28;20384;-77
2022/07/26 09:37:34;;;;;;;1.45;0.00;;;21.40;99.90;;;;;;5114573;28;20015;-76
2022/07/26 09:40:01;;;;;;;1.75;0.00;;;21.30;99.90;;;;;;5116251;28;20420;-76
2022/07/26 09:42:27;;;;;;;1.02;0.08;;;21.30;99.90;;;;;;5115744;28;20020;-76
2022/07/26 09:44:54;;;;;;;1.45;0.00;;;21.00;99.90;;;;;;5114776;28;20089;-76
2022/07/26 09:47:20;;;;;;;0.40;0.00;;;21.00;99.90;;;;;;5115715;28;20026;-76
2022/07/26 09:49:46;;;;;;;0.10;0.00;;;20.80;99.90;;;;;;5115663;28;20461;-76
2022/07/26 09:52:17;;;;;;;1.60;0.00;;;20.50;99.90;;;;;;5115676;28;20016;-76
2022/07/26 09:54:45;;;;;;;0.65;0.00;;;20.40;99.90;;;;;;5115621;28;20099;-76
2022/07/26 09:57:13;;;;;;;4.60;0.10;;;20.40;99.90;;;;;;5115514;28;20016;-76
2022/07/26 09:59:38;;;;;;;3.40;0.30;;;20.50;99.90;;;;;;5113998;28;20480;-76
2022/07/26 10:02:04;;;;;;;7.68;0.28;;;20.50;99.90;;;;;;5115327;28;20034;-76
2022/07/26 10:04:30;;;;;;;3.63;0.00;;;20.40;99.90;;;;;;5113987;28;20020;-76
2022/07/26 10:07:00;;;;;;;2.38;0.50;;;20.50;99.90;;;;;;5115041;28;20465;-76
2022/07/26 10:09:32;;;;;;;0.98;0.10;;;20.60;99.90;;;;;;5115336;28;20028;-76
2022/07/26 10:12:04;;;;;;;1.00;0.00;;;20.70;99.90;;;;;;5115343;28;20027;-77
2022/07/26 10:14:39;;;;;;;2.92;0.00;;;20.80;99.90;;;;;;5113833;28;20077;-76
2022/07/26 10:17:29;;;;;;;1.65;0.00;;;21.00;99.90;;;;;;5115029;28;20049;-76
2022/07/26 10:20:02;;;;;;;3.75;0.00;;;21.00;99.90;;;;;;5115474;28;20084;-76
2022/07/26 10:22:29;;;;;;;3.03;0.00;;;21.30;99.90;;;;;;5113740;28;20471;-76
2022/07/26 10:24:57;;;;;;;2.45;0.13;;;21.40;99.90;;;;;;5115064;28;20059;-76
2022/07/26 10:27:43;;;;;;;0.75;0.00;;;21.40;99.90;;;;;;5115068;28;20023;-76
2022/07/26 10:30:28;;;;;;;1.10;0.00;;;21.20;99.90;;;;;;5115147;28;20469;-76
2022/07/26 10:33:00;;;;;;;2.08;0.00;;;21.00;99.90;;;;;;5114974;28;20027;-76
2022/07/26 10:35:35;;;;;;;5.95;0.57;;;20.80;99.90;;;;;;5115706;28;20023;-76
2022/07/26 10:38:32;;;;;;;3.20;0.00;;;20.60;99.90;;;;;;5114738;28;20055;-76
2022/07/26 10:41:05;;;;;;;2.80;0.00;;;20.30;99.90;;;;;;5110163;28;20027;-76
2022/07/26 10:43:31;;;;;;;0.52;0.10;;;20.00;99.90;;;;;;5113155;28;20020;-76
2022/07/26 10:46:12;;;;;;;0.43;0.00;;;19.90;99.90;;;;;;5114285;28;20028;-76
2022/07/26 10:49:00;;;;;;;2.85;0.80;;;19.70;99.90;;;;;;5114451;28;20468;-76
2022/07/26 10:51:30;;;;;;;3.53;0.00;;;19.60;99.90;;;;;;5113178;28;20020;-76
2022/07/26 10:54:10;;;;;;;0.55;0.05;;;19.70;99.90;;;;;;5114751;28;20383;-76
2022/07/26 10:56:37;;;;;;;0.35;0.00;;;19.80;99.90;;;;;;5114379;28;20016;-76
2022/07/26 10:59:03;;;;;;;1.38;0.00;;;20.00;99.90;;;;;;5112945;28;20028;-76
2022/07/26 11:01:40;;;;;;;0.30;0.00;;;20.30;99.90;;;;;;5114202;28;20026;-76
2022/07/26 11:04:20;;;;;;;1.08;0.00;;;20.60;99.90;;;;;;5114177;28;20081;-77
2022/07/26 11:06:46;;;;;;;1.02;0.10;;;20.90;99.90;;;;;;5112834;28;20030;-76
2022/07/26 11:09:12;;;;;;;0.85;0.00;;;21.10;99.90;;;;;;5112777;28;20031;-76
2022/07/26 11:11:39;;;;;;;1.55;0.00;;;21.20;99.90;;;;;;5114357;28;20484;-76
2022/07/26 11:14:06;;;;;;;0.30;0.10;;;21.50;99.90;;;;;;5113846;28;20045;-76
2022/07/26 11:16:42;;;;;;;0.47;0.00;;;21.90;99.90;;;;;;5114092;28;20539;-76
2022/07/26 11:19:18;;;;;;;2.42;0.13;;;22.20;99.90;;;;;;5114032;28;20044;-76
2022/07/26 11:21:45;;;;;;;0.10;0.00;;;22.70;99.90;;;;;;5114612;28;20358;-76
2022/07/26 11:24:11;;;;;;;1.55;0.00;;;23.00;99.90;;;;;;5113960;28;20111;-76
2022/07/26 11:26:42;;;;;;;0.85;0.00;;;23.00;99.90;;;;;;5112553;28;20535;-76
2022/07/26 11:29:07;;;;;;;4.13;0.55;;;22.90;99.90;;;;;;5113934;28;20112;-76
2022/07/26 11:31:37;;;;;;;0.30;0.20;;;22.80;99.90;;;;;;5116253;28;20047;-76
2022/07/26 11:34:04;;;;;;;0.20;0.05;;;22.70;99.90;;;;;;5119476;28;20043;-76
2022/07/26 11:36:39;;;;;;;1.95;0.52;;;22.90;99.90;;;;;;5120592;27;20027;-76
2022/07/26 11:39:12;;;;;;;1.83;0.00;;;23.00;99.90;;;;;;5120589;27;20099;-76
2022/07/26 11:41:38;;;;;;;1.02;0.00;;;23.00;99.90;;;;;;5120467;27;20031;-76
2022/07/26 11:44:04;;;;;;;0.20;0.00;;;22.70;99.90;;;;;;5120684;27;20027;-76
2022/07/26 11:46:38;;;;;;;1.10;0.13;;;22.40;99.90;;;;;;5120557;27;20035;-76
2022/07/26 11:49:17;;;;;;;1.60;0.00;;;22.20;99.90;;;;;;5120582;27;20027;-76
2022/07/26 11:51:54;;;;;;;2.53;0.00;;;21.80;99.90;;;;;;5121052;27;20376;-76
2022/07/26 11:54:21;;;;;;;2.92;0.00;;;21.80;99.90;;;;;;5121359;27;20031;-77
2022/07/26 11:56:54;;;;;;;1.15;0.05;;;22.20;99.90;;;;;;5119219;28;20019;-76
2022/07/26 11:59:21;;;;;;;3.75;0.32;;;22.40;99.90;;;;;;5120439;27;20030;-76
2022/07/26 12:01:47;;;;;;;1.00;0.10;;;22.40;99.90;;;;;;5120963;27;20024;-77
2022/07/26 12:04:31;;;;;;;1.67;0.00;;;22.40;99.90;;;;;;5120455;27;20031;-76
2022/07/26 12:06:58;;;;;;;4.43;0.10;;;22.30;99.90;;;;;;5120747;27;20587;-76
2022/07/26 12:09:35;;;;;;;8.02;0.47;;;22.30;99.90;;;;;;5120248;27;20376;-76
2022/07/26 12:12:09;;;;;;;2.25;0.00;;;22.60;99.90;;;;;;5119038;28;20103;-76
2022/07/26 12:14:37;;;;;;;0.93;0.00;;;23.20;99.90;;;;;;5120629;27;20503;-76
2022/07/26 12:17:16;;;;;;;5.05;0.08;;;23.50;99.90;;;;;;5120637;27;20023;-76
2022/07/26 12:19:43;;;;;;;2.45;0.25;;;23.60;98.60;;;;;;5120174;27;20027;-76
2022/07/26 12:22:14;;;;;;;1.27;0.00;;;23.90;99.40;;;;;;5120235;27;20484;-76
2022/07/26 12:24:59;;;;;;;5.82;0.57;;;24.20;99.30;;;;;;5120152;27;20028;-76
2022/07/26 12:27:28;;;;;;;1.02;0.00;;;24.30;96.60;;;;;;5120277;27;20422;-76
2022/07/26 12:30:11;;;;;;;2.80;0.00;;;24.20;94.10;;;;;;5119120;28;20114;-76
2022/07/26 12:32:42;;;;;;;3.17;0.00;;;24.10;94.90;;;;;;5120405;27;20019;-76
2022/07/26 12:35:11;;;;;;;2.05;0.00;;;23.90;94.90;;;;;;5121208;27;20054;-76
2022/07/26 12:37:46;;;;;;;7.15;0.60;;;24.00;97.40;;;;;;5120114;27;20023;-76
2022/07/26 12:40:20;;;;;;;2.40;0.15;;;24.40;96.30;;;;;;5120307;27;20484;-76
2022/07/26 12:42:48;;;;;;;1.63;0.00;;;24.50;93.90;;;;;;5118760;27;20031;-76
2022/07/26 12:45:15;;;;;;;3.33;0.10;;;24.40;94.30;;;;;;5115249;28;20024;-76
2022/07/26 12:47:43;;;;;;;3.55;0.10;;;24.30;93.60;;;;;;5117076;28;20406;-77